Flight Track Log - Related Links

Times and Time Zones

All times are in EDT time to prevent confusion due to time zone crossing. See the SWA561 flight status page for this flight to view local times or setup timezone preferences in your user account.

Time Position Orientation Groundspeed Altitude Reporting Facility
EDT Latitude Longitude Course Direction KTS MPH feet Rate Location/Type
Fri 11:16:37 PM 33.9461 -118.4536 264° West 159 183 1,500  Level Los Angeles Center
Fri 11:17:38 PM 33.9394 -118.5267 264° West 223 257 4,200 2,855 Climbing Los Angeles Center
Fri 11:18:41 PM 33.9319 -118.6133 264° West 259 298 7,400 3,145 Climbing Los Angeles Center
Fri 11:19:42 PM 33.9228 -118.7172 264° West 289 333 10,700 2,683 Climbing Los Angeles Center
Fri 11:20:44 PM 33.9136 -118.8139 264° West 320 368 12,900 1,463 Climbing Los Angeles Center
Fri 11:21:45 PM 33.9033 -118.9308 264° West 351 404 13,700 2,341 Climbing Los Angeles Center
Fri 11:22:47 PM 33.9544 -119.0583 296° West 362 417 17,700 3,484 Climbing Los Angeles Center
Fri 11:23:49 PM 34.0247 -119.1486 313° West 368 423 20,900 2,878 Climbing Los Angeles Center
Fri 11:24:50 PM 34.0975 -119.2411 314° West 379 436 23,600 2,488 Climbing Los Angeles Center
Fri 11:25:52 PM 34.1711 -119.3369 313° West 386 444 26,000 2,177 Climbing Los Angeles Center
Fri 11:26:54 PM 34.2475 -119.4358 313° West 397 457 28,100 2,274 Climbing Los Angeles Center
Fri 11:27:56 PM 34.3244 -119.5367 313° West 405 466 30,700 2,293 Climbing Los Angeles Center
Fri 11:28:57 PM 34.4014 -119.6339 314° West 403 464 32,800 1,610 Climbing Los Angeles Center
Fri 11:29:59 PM 34.4900 -119.7489 313° West 393 452 34,000 581 Climbing Los Angeles Center
Fri 11:31:01 PM 34.5681 -119.8394 316° Northwest 389 448 34,000  Level Los Angeles Center
Fri 11:32:03 PM 34.6383 -119.9144 319° Northwest 386 444 34,000  Level Los Angeles Center
Fri 11:33:04 PM 34.7344 -120.0178 319° Northwest 387 445 34,000  Level Los Angeles Center
Fri 11:34:06 PM 34.8150 -120.1053 318° Northwest 391 450 34,000  Level Los Angeles Center
Fri 11:35:08 PM 34.8931 -120.1925 318° Northwest 385 443 34,000  Level Los Angeles Center
Fri 11:36:09 PM 34.9725 -120.2800 318° Northwest 388 447 34,000  Level Los Angeles Center
Fri 11:37:11 PM 35.0528 -120.3669 318° Northwest 388 447 34,000  Level Los Angeles Center
Fri 11:38:13 PM 35.1322 -120.4558 318° Northwest 389 448 34,000  Level Los Angeles Center
Fri 11:39:15 PM 35.2264 -120.5619 317° Northwest 386 444 34,000  Level Los Angeles Center
Fri 11:40:28 PM 35.3094 -120.6447 321° Northwest 386 444 34,000  Level Los Angeles Center
Fri 11:41:30 PM 35.4142 -120.7353 325° Northwest 384 442 34,000  Level Los Angeles Center
Fri 11:41:52 PM 35.4497 -120.7650 326° Northwest 389 448 34,000  Level Oakland Center
Fri 11:42:53 PM 35.5361 -120.8433 324° Northwest 387 445 34,000  Level Oakland Center
Fri 11:43:54 PM 35.6233 -120.9231 323° Northwest 389 448 34,000  Level Oakland Center
Fri 11:44:55 PM 35.7097 -121.0017 324° Northwest 387 445 34,000  Level Oakland Center
Fri 11:45:56 PM 35.7961 -121.0806 323° Northwest 387 445 34,000  Level Oakland Center
Fri 11:46:57 PM 35.8822 -121.1597 323° Northwest 385 443 34,000  Level Oakland Center
Fri 11:47:58 PM 35.9689 -121.2381 324° Northwest 384 442 34,000 -148 Level Oakland Center
Fri 11:48:59 PM 36.0550 -121.3186 323° Northwest 388 447 33,700 -1,082 Descending Oakland Center
Fri 11:50:00 PM 36.1372 -121.3956 323° Northwest 370 426 31,800 -2,066 Descending Oakland Center
Fri 11:51:01 PM 36.2317 -121.4850 323° Northwest 355 409 29,500 -2,016 Descending Oakland Center
Fri 11:52:02 PM 36.3097 -121.5556 324° Northwest 352 405 27,700 -1,820 Descending Oakland Center
Fri 11:53:03 PM 36.3869 -121.6289 323° Northwest 348 400 25,800 -1,869 Descending Oakland Center
Fri 11:54:04 PM 36.4647 -121.6994 324° Northwest 344 396 23,900 -1,770 Descending Oakland Center
Fri 11:55:05 PM 36.5392 -121.7711 322° Northwest 334 384 22,200 -1,770 Descending Oakland Center
Fri 11:56:06 PM 36.6094 -121.8358 324° Northwest 317 365 20,300 -1,377 Descending Oakland Center
Fri 11:57:07 PM 36.6769 -121.8969 324° Northwest 304 350 19,400 -1,230 Descending Oakland Center
Fri 11:58:08 PM 36.7667 -121.9667 328° Northwest 305 351 17,800 -1,488 Descending Northern Cal TRACON
Fri 11:59:08 PM 36.8333 -121.9833 349° North 299 344 16,400 -1,500 Descending Northern Cal TRACON
Sat 12:00:08 AM 36.9167 -122.0167 342° North 293 337 14,800 -1,500 Descending Northern Cal TRACON
Sat 12:01:08 AM 37.0000 -122.0333 351° North 289 333 13,400 -1,512 Descending Northern Cal TRACON
Sat 12:02:11 AM 37.0808 -122.0517 350° North 286 329 11,700 -1,548 Descending Oakland Center
Sat 12:03:12 AM 37.1603 -122.0725 348° North 290 334 10,200 -836 Descending Oakland Center
Sat 12:04:13 AM 37.2231 -122.1181 330° Northwest 283 326 10,000 -738 Descending Oakland Center
Sat 12:05:14 AM 37.2669 -122.1997 304° West 287 330 8,700 -885 Descending Oakland Center
Sat 12:06:15 AM 37.3064 -122.2708 305° West 262 302 8,200 -836 Descending Oakland Center
Sat 12:07:16 AM 37.3625 -122.2519 15° North 234 269 7,000 -1,082 Descending Oakland Center
Sat 12:08:17 AM 37.3969 -122.1800 59° Northeast 239 275 6,000 -1,274 Descending Oakland Center
Sat 12:09:09 AM 37.4333 -122.1167 54° Northeast 230 265 4,600 -1,071 Descending Northern Cal TRACON
Sat 12:10:09 AM 37.5000 -122.1333 349° North 221 254 4,000 -550 Descending Northern Cal TRACON
Sat 12:11:09 AM 37.5333 -122.1833 310° West 210 242 3,500 -750 Descending Northern Cal TRACON
Sat 12:12:09 AM 37.5667 -122.2333 310° West 181 208 2,500 -1,150 Descending Northern Cal TRACON
Sat 12:13:09 AM 37.5833 -122.3000 288° West 163 188 1,200 -1,000 Descending Northern Cal TRACON
Sat 12:14:15 AM 37.6000 -122.3333 302° West 131 151 400 -727 Descending Northern Cal TRACON
Sat 12:17:00 AM 37.6167 -122.3667 322° Northwest  Level FlightAware Approximate

Login

Don't have an account? Register now (free) for customized features, flight alerts, and more!